createdAt,value
2023-03-03T00:01:32.889Z,99.90
2023-03-03T00:03:59.712Z,99.90
2023-03-03T00:06:26.877Z,99.90
2023-03-03T00:08:53.573Z,99.90
2023-03-03T00:11:20.258Z,99.90
2023-03-03T00:13:46.943Z,99.90
2023-03-03T00:16:15.299Z,99.90
2023-03-03T00:18:51.574Z,99.90
2023-03-03T00:21:28.985Z,99.90
2023-03-03T00:24:03.142Z,99.90
2023-03-03T00:26:37.622Z,99.90
2023-03-03T00:29:24.206Z,99.90
2023-03-03T00:31:50.804Z,99.90
2023-03-03T00:34:17.483Z,99.90
2023-03-03T00:36:44.653Z,99.90
2023-03-03T00:39:19.251Z,99.90
2023-03-03T00:41:46.120Z,99.90
2023-03-03T00:44:31.575Z,99.90
2023-03-03T00:47:01.635Z,99.90
2023-03-03T00:49:28.339Z,99.90
2023-03-03T00:51:54.945Z,99.90
2023-03-03T00:54:21.577Z,99.90
2023-03-03T00:56:48.275Z,99.90
2023-03-03T00:59:15.156Z,99.90
2023-03-03T01:01:41.873Z,99.90
2023-03-03T01:04:08.822Z,99.90
2023-03-03T01:06:35.624Z,99.90
2023-03-03T01:09:02.219Z,99.90
2023-03-03T01:11:29.256Z,99.90
2023-03-03T01:13:56.439Z,99.90
2023-03-03T01:16:23.187Z,99.90
2023-03-03T01:18:50.606Z,99.90
2023-03-03T01:21:17.266Z,99.90
2023-03-03T01:23:46.054Z,99.90
2023-03-03T01:26:12.696Z,99.90
2023-03-03T01:28:39.401Z,99.90
2023-03-03T01:31:06.405Z,99.90
2023-03-03T01:33:33.943Z,99.90
2023-03-03T01:36:00.986Z,99.90
2023-03-03T01:38:27.764Z,99.90
2023-03-03T01:40:58.263Z,99.90
2023-03-03T01:43:29.116Z,99.90
2023-03-03T01:45:58.832Z,99.90
2023-03-03T01:48:30.159Z,99.90
2023-03-03T01:51:03.100Z,99.90
2023-03-03T01:53:32.662Z,99.90
2023-03-03T01:55:59.852Z,99.90
2023-03-03T01:58:29.662Z,99.90
2023-03-03T02:00:59.864Z,99.90
2023-03-03T02:03:27.248Z,99.90
2023-03-03T02:05:56.937Z,99.90
2023-03-03T02:08:27.206Z,99.90
2023-03-03T02:10:54.863Z,99.90
2023-03-03T02:13:21.502Z,99.90
2023-03-03T02:15:48.514Z,99.90
2023-03-03T02:18:16.796Z,99.90
2023-03-03T02:20:43.470Z,99.90
2023-03-03T02:23:20.348Z,99.90
2023-03-03T02:25:48.035Z,99.90
2023-03-03T02:28:14.737Z,99.90
2023-03-03T02:30:41.427Z,99.90
2023-03-03T02:33:09.192Z,99.90
2023-03-03T02:35:38.035Z,99.90
2023-03-03T02:38:23.821Z,99.90
2023-03-03T02:40:56.499Z,99.90
2023-03-03T02:43:24.718Z,99.90
2023-03-03T02:45:52.597Z,99.90
2023-03-03T02:48:19.378Z,99.90
2023-03-03T02:50:46.066Z,99.90
2023-03-03T02:53:13.136Z,99.90
2023-03-03T02:55:39.862Z,99.90
2023-03-03T02:58:06.560Z,99.90
2023-03-03T03:00:33.641Z,99.90
2023-03-03T03:03:01.134Z,99.90
2023-03-03T03:05:28.949Z,99.90
2023-03-03T03:07:57.217Z,99.90
2023-03-03T03:10:23.871Z,99.90
2023-03-03T03:12:50.999Z,99.90
2023-03-03T03:15:17.839Z,99.90
2023-03-03T03:17:44.538Z,99.90
2023-03-03T03:20:12.622Z,99.90
2023-03-03T03:22:39.363Z,99.90
2023-03-03T03:25:07.984Z,99.90
2023-03-03T03:27:35.130Z,99.90
2023-03-03T03:30:01.952Z,99.90
2023-03-03T03:32:29.996Z,99.90
2023-03-03T03:34:57.010Z,99.90
2023-03-03T03:37:23.911Z,99.90
2023-03-03T03:39:50.674Z,99.90
2023-03-03T03:42:19.368Z,99.90
2023-03-03T03:44:46.928Z,99.90
2023-03-03T03:47:15.054Z,99.90
2023-03-03T03:49:41.976Z,99.90
2023-03-03T03:52:08.629Z,99.90
2023-03-03T03:54:35.492Z,99.90
2023-03-03T03:57:02.299Z,99.90
2023-03-03T03:59:29.856Z,99.90
2023-03-03T04:01:57.040Z,99.90
2023-03-03T04:04:25.332Z,99.90
2023-03-03T04:06:52.788Z,99.90
2023-03-03T04:09:21.900Z,99.90
2023-03-03T04:11:48.965Z,99.90
2023-03-03T04:14:15.949Z,99.90
2023-03-03T04:16:42.874Z,99.90
2023-03-03T04:19:10.322Z,99.90
2023-03-03T04:21:39.485Z,99.90
2023-03-03T04:24:07.397Z,99.90
2023-03-03T04:26:34.425Z,99.90
2023-03-03T04:29:03.038Z,99.90
2023-03-03T04:31:30.078Z,99.90
2023-03-03T04:33:56.964Z,99.90
2023-03-03T04:36:24.454Z,99.90
2023-03-03T04:38:51.418Z,99.90
2023-03-03T04:41:18.607Z,99.90
2023-03-03T04:43:45.676Z,99.90
2023-03-03T04:46:13.697Z,99.90
2023-03-03T04:48:40.519Z,99.90
2023-03-03T04:51:07.498Z,99.90
2023-03-03T04:53:38.250Z,99.90
2023-03-03T04:56:06.686Z,99.90
2023-03-03T04:58:33.443Z,99.90
2023-03-03T05:01:01.266Z,99.90
2023-03-03T05:03:29.903Z,99.90
2023-03-03T05:05:57.009Z,99.90
2023-03-03T05:08:24.008Z,99.90
2023-03-03T05:10:54.533Z,99.90
2023-03-03T05:13:21.215Z,99.90
2023-03-03T05:15:51.563Z,99.90
2023-03-03T05:18:19.481Z,99.90
2023-03-03T05:20:46.218Z,99.90
2023-03-03T05:23:12.836Z,99.90
2023-03-03T05:25:42.641Z,99.90
2023-03-03T05:28:10.165Z,99.90
2023-03-03T05:30:37.163Z,99.90
2023-03-03T05:33:04.538Z,99.90
2023-03-03T05:35:31.366Z,99.90
2023-03-03T05:37:58.376Z,99.90
2023-03-03T05:40:25.877Z,99.90
2023-03-03T05:42:53.017Z,99.90
2023-03-03T05:45:21.286Z,99.90
2023-03-03T05:47:49.368Z,99.90
2023-03-03T05:50:16.164Z,99.90
2023-03-03T05:52:42.825Z,99.90
2023-03-03T05:57:23.354Z,99.90
2023-03-03T05:59:50.174Z,99.90
2023-03-03T06:02:17.028Z,99.90
2023-03-03T06:04:43.854Z,99.90
2023-03-03T06:07:10.647Z,99.90
2023-03-03T06:09:37.536Z,99.90
2023-03-03T06:12:04.534Z,99.90
2023-03-03T06:14:31.511Z,99.90
2023-03-03T06:16:58.315Z,99.90
2023-03-03T06:19:25.598Z,99.90
2023-03-03T06:21:52.410Z,99.90
2023-03-03T06:24:19.428Z,99.90
2023-03-03T06:26:46.151Z,99.90
2023-03-03T06:29:15.284Z,99.90
2023-03-03T06:31:43.339Z,99.90
2023-03-03T06:34:10.217Z,99.90
2023-03-03T06:36:36.921Z,99.90
2023-03-03T06:39:04.043Z,99.90
2023-03-03T06:41:30.788Z,99.90
2023-03-03T06:43:58.435Z,99.90
2023-03-03T06:46:27.873Z,99.90
2023-03-03T06:48:54.921Z,99.90
2023-03-03T06:51:28.358Z,99.90
2023-03-03T06:53:56.957Z,99.90
2023-03-03T06:56:25.592Z,99.90
2023-03-03T06:59:00.687Z,99.90
2023-03-03T07:01:30.738Z,99.90
2023-03-03T07:03:57.819Z,99.90
2023-03-03T07:06:28.189Z,99.90
2023-03-03T07:08:57.574Z,99.90
2023-03-03T07:11:24.628Z,99.90
2023-03-03T07:13:53.478Z,99.90
2023-03-03T07:16:28.009Z,99.90
2023-03-03T07:18:56.533Z,99.90
2023-03-03T07:21:41.709Z,99.90
2023-03-03T07:24:28.249Z,99.90
2023-03-03T07:27:00.578Z,99.90
2023-03-03T07:29:30.615Z,99.90
2023-03-03T07:31:59.656Z,99.90
2023-03-03T07:34:38.606Z,99.90
2023-03-03T07:37:18.669Z,99.90
2023-03-03T07:39:46.814Z,99.90
2023-03-03T07:42:24.266Z,99.90
2023-03-03T07:45:02.381Z,99.90
2023-03-03T07:47:36.704Z,99.90
2023-03-03T07:50:22.234Z,99.90
2023-03-03T07:53:20.496Z,99.90
2023-03-03T07:55:47.421Z,99.90
2023-03-03T07:58:16.936Z,99.90
2023-03-03T08:01:02.305Z,99.90
2023-03-03T08:03:29.094Z,99.90
2023-03-03T08:05:55.793Z,99.90
2023-03-03T08:08:22.963Z,99.90
2023-03-03T08:10:57.780Z,99.90
2023-03-03T08:13:34.690Z,99.90
2023-03-03T08:16:25.440Z,99.90
2023-03-03T08:18:53.821Z,99.90
2023-03-03T08:21:24.641Z,99.90
2023-03-03T08:23:53.531Z,99.90
2023-03-03T08:26:24.677Z,99.90
2023-03-03T08:28:51.938Z,99.90
2023-03-03T08:31:31.091Z,99.90
2023-03-03T08:34:01.688Z,99.90
2023-03-03T08:36:28.365Z,99.90
2023-03-03T08:38:55.487Z,99.90
2023-03-03T08:41:22.243Z,99.90
2023-03-03T08:43:48.976Z,99.90
2023-03-03T08:46:16.177Z,99.90
2023-03-03T08:48:44.257Z,99.90
2023-03-03T08:51:11.620Z,99.90
2023-03-03T08:53:38.411Z,99.90
2023-03-03T08:56:06.972Z,99.90
2023-03-03T08:58:35.939Z,99.90
2023-03-03T09:01:05.756Z,99.90
2023-03-03T09:03:32.584Z,99.90
2023-03-03T09:05:59.449Z,99.90
2023-03-03T09:08:26.271Z,99.90
2023-03-03T09:10:53.085Z,99.90
2023-03-03T09:13:20.620Z,99.90
2023-03-03T09:15:49.045Z,99.90
2023-03-03T09:18:38.769Z,99.90
2023-03-03T09:21:28.920Z,99.90
2023-03-03T09:23:57.633Z,99.90
2023-03-03T09:26:42.942Z,99.90
2023-03-03T09:29:21.112Z,99.90
2023-03-03T09:32:08.128Z,99.90
2023-03-03T09:34:44.246Z,99.90
2023-03-03T09:37:27.386Z,99.90
2023-03-03T09:39:57.884Z,99.90
2023-03-03T09:42:30.418Z,99.90
2023-03-03T09:45:17.923Z,99.90
2023-03-03T09:48:08.245Z,99.90
2023-03-03T09:51:15.025Z,99.90
2023-03-03T09:54:00.527Z,99.20
2023-03-03T09:56:39.512Z,97.60
2023-03-03T09:59:42.843Z,95.70
2023-03-03T10:02:46.529Z,94.50
2023-03-03T10:05:41.360Z,94.20
2023-03-03T10:08:37.798Z,95.10
2023-03-03T10:11:16.948Z,95.20
2023-03-03T10:14:11.881Z,95.00
2023-03-03T10:16:50.002Z,94.10
2023-03-03T10:20:01.518Z,93.70
2023-03-03T10:22:40.090Z,94.10
2023-03-03T10:25:28.250Z,94.00
2023-03-03T10:28:40.349Z,94.80
2023-03-03T10:31:28.807Z,94.80
2023-03-03T10:34:26.646Z,95.30
2023-03-03T10:36:59.622Z,94.90
2023-03-03T10:39:45.361Z,94.60
2023-03-03T10:42:36.644Z,94.00
2023-03-03T10:45:23.146Z,93.60
2023-03-03T10:48:00.148Z,92.30
2023-03-03T10:50:27.376Z,91.60
2023-03-03T10:53:14.219Z,88.80
2023-03-03T10:55:46.790Z,87.70
2023-03-03T10:58:25.504Z,83.00
2023-03-03T11:01:07.507Z,80.40
2023-03-03T11:04:04.047Z,79.30
2023-03-03T11:06:43.625Z,78.30
2023-03-03T11:09:28.490Z,79.20
2023-03-03T11:12:23.315Z,77.80
2023-03-03T11:15:05.308Z,78.10
2023-03-03T11:17:38.142Z,77.60
2023-03-03T11:20:46.005Z,77.40
2023-03-03T11:23:28.255Z,76.60
2023-03-03T11:26:16.487Z,74.80
2023-03-03T11:29:18.886Z,75.30
2023-03-03T11:31:54.763Z,74.40
2023-03-03T11:34:46.444Z,75.40
2023-03-03T11:37:21.283Z,73.80
2023-03-03T11:39:53.324Z,72.20
2023-03-03T11:42:54.535Z,72.10
2023-03-03T11:45:28.253Z,71.20
2023-03-03T11:48:22.691Z,70.30
2023-03-03T11:50:58.387Z,70.50
2023-03-03T11:53:45.017Z,69.80
2023-03-03T11:56:34.967Z,69.20
2023-03-03T11:59:20.339Z,68.60
2023-03-03T12:01:56.271Z,68.40
2023-03-03T12:04:39.616Z,67.80
2023-03-03T12:07:38.880Z,67.50
2023-03-03T12:10:19.023Z,66.90
2023-03-03T12:13:11.162Z,67.20
2023-03-03T12:15:37.904Z,67.20
2023-03-03T12:18:12.548Z,67.40
2023-03-03T12:20:51.360Z,66.60
2023-03-03T12:23:49.095Z,66.80
2023-03-03T12:26:42.264Z,65.90
2023-03-03T12:29:33.478Z,64.60
2023-03-03T12:32:23.712Z,64.00
2023-03-03T12:35:05.988Z,64.20
2023-03-03T12:37:47.291Z,67.00
2023-03-03T12:40:19.664Z,66.10
2023-03-03T12:42:49.220Z,65.70
2023-03-03T12:45:34.513Z,65.00
2023-03-03T12:48:15.903Z,64.30
2023-03-03T12:50:55.693Z,63.40
2023-03-03T12:53:31.373Z,62.90
2023-03-03T12:56:07.030Z,62.10
2023-03-03T12:58:45.036Z,60.80
2023-03-03T13:01:33.666Z,60.60
2023-03-03T13:04:09.083Z,60.30
2023-03-03T13:07:03.680Z,60.80
2023-03-03T13:09:51.583Z,60.50
2023-03-03T13:12:36.591Z,59.20
2023-03-03T13:15:32.629Z,59.10
2023-03-03T13:18:33.494Z,59.70
2023-03-03T13:21:28.515Z,58.70
2023-03-03T13:24:44.233Z,57.90
2023-03-03T13:27:18.388Z,58.30
2023-03-03T13:30:01.154Z,58.10
2023-03-03T13:32:52.838Z,57.60
2023-03-03T13:35:43.995Z,58.40
2023-03-03T13:38:15.913Z,59.10
2023-03-03T13:40:44.299Z,58.80
2023-03-03T13:43:19.876Z,57.60
2023-03-03T13:46:16.017Z,56.90
2023-03-03T13:49:12.627Z,56.50
2023-03-03T13:52:00.614Z,56.30
2023-03-03T13:54:57.427Z,56.20
2023-03-03T13:57:49.005Z,56.30
2023-03-03T14:00:31.309Z,56.80
2023-03-03T14:03:15.508Z,56.60
2023-03-03T14:05:46.286Z,56.10
2023-03-03T14:08:13.717Z,56.30
2023-03-03T14:11:05.116Z,56.10
2023-03-03T14:13:55.736Z,55.90
2023-03-03T14:16:33.349Z,57.20
2023-03-03T14:19:05.649Z,57.30
2023-03-03T14:21:52.186Z,57.10
2023-03-03T14:24:21.291Z,57.20
2023-03-03T14:26:53.620Z,57.60
2023-03-03T14:29:26.362Z,57.90
2023-03-03T14:32:01.663Z,57.30
2023-03-03T14:34:38.560Z,56.70
2023-03-03T14:37:20.896Z,56.40
2023-03-03T14:40:02.149Z,56.40
2023-03-03T14:42:48.758Z,56.70
2023-03-03T14:45:41.049Z,57.20
2023-03-03T14:48:17.609Z,57.20
2023-03-03T14:50:49.838Z,57.90
2023-03-03T14:53:19.701Z,58.00
2023-03-03T14:55:53.880Z,57.60
2023-03-03T14:58:41.197Z,57.70
2023-03-03T15:01:16.964Z,59.10
2023-03-03T15:03:58.154Z,59.80
2023-03-03T15:06:47.753Z,59.50
2023-03-03T15:09:22.141Z,60.00
2023-03-03T15:11:55.916Z,60.20
2023-03-03T15:14:38.983Z,60.80
2023-03-03T15:17:29.397Z,60.30
2023-03-03T15:20:21.216Z,59.90
2023-03-03T15:23:24.523Z,60.50
2023-03-03T15:26:12.349Z,60.80
2023-03-03T15:29:01.884Z,60.70
2023-03-03T15:31:32.133Z,60.60
2023-03-03T15:34:33.033Z,61.30
2023-03-03T15:37:16.745Z,61.30
2023-03-03T15:40:10.870Z,63.00
2023-03-03T15:42:48.070Z,63.20
2023-03-03T15:45:35.008Z,65.70
2023-03-03T15:48:13.750Z,69.10
2023-03-03T15:51:08.345Z,71.80
2023-03-03T15:54:09.716Z,74.00
2023-03-03T15:56:59.010Z,76.70
2023-03-03T15:59:42.293Z,79.20
2023-03-03T16:02:11.891Z,81.20
2023-03-03T16:04:47.891Z,82.50
2023-03-03T16:07:50.908Z,84.20
2023-03-03T16:10:33.443Z,85.10
2023-03-03T16:13:18.966Z,86.10
2023-03-03T16:16:10.703Z,87.30
2023-03-03T16:18:59.491Z,87.90
2023-03-03T16:21:32.274Z,88.60
2023-03-03T16:24:05.821Z,89.10
2023-03-03T16:26:38.488Z,89.50
2023-03-03T16:29:29.407Z,90.30
2023-03-03T16:32:18.012Z,90.70
2023-03-03T16:35:24.474Z,90.70
2023-03-03T16:38:04.002Z,91.00
2023-03-03T16:40:46.911Z,91.60
2023-03-03T16:43:25.546Z,91.60
2023-03-03T16:45:59.517Z,92.00
2023-03-03T16:49:01.301Z,92.30
2023-03-03T16:51:36.906Z,92.90
2023-03-03T16:54:26.271Z,93.10
2023-03-03T16:57:01.868Z,93.60
2023-03-03T16:59:40.053Z,93.90
2023-03-03T17:02:25.556Z,94.20
2023-03-03T17:05:19.709Z,94.90
2023-03-03T17:08:16.700Z,95.60
2023-03-03T17:10:51.040Z,96.40
2023-03-03T17:13:45.727Z,97.20
2023-03-03T17:16:46.242Z,98.10
2023-03-03T17:19:46.200Z,98.80
2023-03-03T17:22:31.700Z,99.90
2023-03-03T17:25:00.680Z,99.90
2023-03-03T17:28:00.871Z,99.90
2023-03-03T17:30:42.200Z,99.90
2023-03-03T17:33:22.715Z,99.90
2023-03-03T17:36:04.590Z,99.90
2023-03-03T17:38:58.922Z,99.90
2023-03-03T17:41:42.705Z,99.90
2023-03-03T17:44:22.419Z,99.90
2023-03-03T17:47:13.213Z,99.90
2023-03-03T17:49:55.997Z,99.90
2023-03-03T17:52:39.716Z,99.90
2023-03-03T17:55:35.661Z,99.90
2023-03-03T17:58:34.722Z,99.90
2023-03-03T18:01:25.737Z,99.90
2023-03-03T18:04:18.957Z,99.90
2023-03-03T18:06:50.325Z,99.90
2023-03-03T18:09:30.676Z,99.90
2023-03-03T18:12:18.277Z,99.90
2023-03-03T18:15:13.008Z,99.90
2023-03-03T18:18:05.332Z,99.90
2023-03-03T18:20:39.882Z,99.90
2023-03-03T18:23:41.509Z,99.90
2023-03-03T18:26:43.676Z,99.90
2023-03-03T18:29:27.028Z,99.90
2023-03-03T18:31:53.778Z,99.90
2023-03-03T18:34:20.605Z,99.90
2023-03-03T18:37:24.534Z,99.90
2023-03-03T18:40:13.924Z,99.90
2023-03-03T18:42:45.536Z,99.90
2023-03-03T18:45:19.228Z,99.90
2023-03-03T18:48:01.253Z,99.90
2023-03-03T18:50:35.465Z,99.90
2023-03-03T18:53:12.596Z,99.90
2023-03-03T18:55:48.348Z,99.90
2023-03-03T18:58:15.060Z,99.90
2023-03-03T19:00:46.925Z,99.90
2023-03-03T19:03:28.575Z,99.90
2023-03-03T19:06:00.065Z,99.90
2023-03-03T19:08:53.805Z,99.90
2023-03-03T19:11:48.891Z,99.90
2023-03-03T19:14:28.725Z,99.90
2023-03-03T19:16:58.182Z,99.90
2023-03-03T19:19:32.569Z,99.90
2023-03-03T19:22:24.556Z,99.90
2023-03-03T19:25:09.099Z,99.90
2023-03-03T19:27:47.950Z,99.90
2023-03-03T19:30:36.167Z,99.90
2023-03-03T19:33:30.294Z,99.90
2023-03-03T19:35:56.981Z,99.90
2023-03-03T19:38:30.010Z,99.90
2023-03-03T19:41:20.433Z,99.90
2023-03-03T19:44:02.578Z,99.90
2023-03-03T19:46:47.421Z,99.90
2023-03-03T19:49:37.572Z,99.90
2023-03-03T19:52:28.641Z,99.90
2023-03-03T19:55:01.216Z,99.90
2023-03-03T19:57:37.300Z,99.90
2023-03-03T20:00:28.417Z,99.90
2023-03-03T20:03:14.279Z,99.90
2023-03-03T20:06:02.566Z,99.90
2023-03-03T20:08:50.027Z,99.90
2023-03-03T20:11:48.177Z,99.90
2023-03-03T20:14:31.208Z,99.90
2023-03-03T20:17:22.577Z,99.90
2023-03-03T20:19:58.770Z,99.90
2023-03-03T20:22:50.547Z,99.90
2023-03-03T20:25:32.660Z,99.90
2023-03-03T20:28:21.494Z,99.90
2023-03-03T20:31:12.965Z,99.90
2023-03-03T20:33:56.759Z,99.90
2023-03-03T20:36:55.698Z,99.90
2023-03-03T20:39:36.738Z,99.90
2023-03-03T20:42:05.819Z,99.90
2023-03-03T20:45:14.674Z,99.90
2023-03-03T20:48:07.670Z,99.90
2023-03-03T20:51:10.091Z,99.90
2023-03-03T20:54:09.518Z,99.90
2023-03-03T20:56:58.746Z,99.90
2023-03-03T20:59:34.356Z,99.90
2023-03-03T21:02:16.884Z,99.90
2023-03-03T21:04:43.979Z,99.90
2023-03-03T21:07:24.870Z,99.90
2023-03-03T21:10:24.356Z,99.90
2023-03-03T21:12:58.105Z,99.90
2023-03-03T21:15:36.861Z,99.90
2023-03-03T21:18:26.481Z,99.90
2023-03-03T21:20:53.729Z,99.90
2023-03-03T21:23:21.196Z,99.90
2023-03-03T21:25:52.266Z,99.90
2023-03-03T21:28:26.558Z,99.90
2023-03-03T21:31:08.461Z,99.90
2023-03-03T21:33:57.422Z,99.90
2023-03-03T21:36:44.550Z,99.90
2023-03-03T21:39:41.198Z,99.90
2023-03-03T21:42:19.191Z,99.90
2023-03-03T21:44:51.095Z,99.90
2023-03-03T21:47:22.737Z,99.90
2023-03-03T21:49:51.710Z,99.90
2023-03-03T21:52:20.694Z,99.90
2023-03-03T21:54:50.000Z,99.90
2023-03-03T21:57:17.462Z,99.90
2023-03-03T21:59:44.233Z,99.90
2023-03-03T22:02:11.057Z,99.90
2023-03-03T22:04:41.026Z,99.90
2023-03-03T22:07:08.270Z,99.90
2023-03-03T22:09:35.738Z,99.90
2023-03-03T22:12:02.972Z,99.90
2023-03-03T22:14:29.812Z,99.90
2023-03-03T22:16:56.891Z,99.90
2023-03-03T22:19:23.629Z,99.90
2023-03-03T22:21:50.675Z,99.90
2023-03-03T22:24:17.429Z,99.90
2023-03-03T22:26:44.471Z,99.90
2023-03-03T22:29:11.339Z,99.90
2023-03-03T22:31:38.230Z,99.90
2023-03-03T22:34:05.644Z,99.90
2023-03-03T22:36:32.734Z,99.90
2023-03-03T22:38:59.788Z,99.90
2023-03-03T22:41:29.933Z,99.90
2023-03-03T22:43:58.440Z,99.90
2023-03-03T22:46:25.359Z,99.90
2023-03-03T22:48:52.182Z,99.90
2023-03-03T22:51:22.180Z,99.90
2023-03-03T22:53:50.227Z,99.90
2023-03-03T22:56:17.112Z,99.90
2023-03-03T22:58:44.077Z,99.90
2023-03-03T23:01:10.924Z,99.90
2023-03-03T23:03:37.820Z,99.90
2023-03-03T23:06:05.280Z,99.90
2023-03-03T23:08:32.052Z,99.90
2023-03-03T23:10:58.881Z,99.90
2023-03-03T23:13:27.001Z,99.90
2023-03-03T23:15:53.866Z,99.90
2023-03-03T23:18:20.720Z,99.90
2023-03-03T23:20:47.490Z,99.90
2023-03-03T23:23:14.273Z,99.90
2023-03-03T23:25:40.960Z,99.90
2023-03-03T23:28:08.145Z,99.90
2023-03-03T23:30:35.057Z,99.90
2023-03-03T23:33:01.800Z,99.90
2023-03-03T23:35:28.640Z,99.90
2023-03-03T23:37:55.493Z,99.90
2023-03-03T23:40:22.450Z,99.90
2023-03-03T23:42:49.663Z,99.90
2023-03-03T23:45:16.545Z,99.90
2023-03-03T23:47:43.473Z,99.90
2023-03-03T23:50:12.124Z,99.90
2023-03-03T23:52:38.978Z,99.90
2023-03-03T23:55:06.650Z,99.90
2023-03-03T23:57:34.037Z,99.90
